Time;durP1;ratioP1;P1;durP2;ratioP2;P2;SDS_P1;SDS_P2;PMS_P1;PMS_P2;Temp;Humidity;BMP_temperature;BMP_pressure;BME280_temperature;BME280_humidity;BME280_pressure;Samples;Min_cycle;Max_cycle;Signal;HPM_P1;HPM_P2
2023/09/16 00:00:34;;;;;;;6.63;4.05;;;15.10;99.90;;;14.32;100.00;97460.44;5042943;28;20053;-73
2023/09/16 00:03:03;;;;;;;5.38;3.97;;;15.00;99.90;;;14.27;100.00;97456.41;5042999;28;20132;-73
2023/09/16 00:05:31;;;;;;;6.68;4.25;;;15.00;99.90;;;14.31;100.00;97461.34;5039755;28;20041;-73
2023/09/16 00:07:58;;;;;;;6.80;4.47;;;15.10;99.90;;;14.38;100.00;97460.06;5040592;28;20045;-73
2023/09/16 00:10:28;;;;;;;5.43;3.35;;;15.10;99.90;;;14.39;100.00;97459.13;5041049;28;20052;-72
2023/09/16 00:12:55;;;;;;;5.03;3.38;;;15.10;99.90;;;14.28;100.00;97461.53;5038883;28;20049;-73
2023/09/16 00:15:22;;;;;;;4.82;3.40;;;15.10;99.90;;;14.44;100.00;97458.88;5037285;28;20557;-73
2023/09/16 00:17:49;;;;;;;8.57;4.00;;;15.10;99.90;;;14.36;100.00;97454.09;5037740;28;20049;-73
2023/09/16 00:20:17;;;;;;;5.95;3.67;;;15.10;99.90;;;14.33;100.00;97456.06;5038578;28;20045;-72
2023/09/16 00:22:45;;;;;;;7.78;4.57;;;15.10;99.90;;;14.37;100.00;97450.56;5045447;28;20549;-73
2023/09/16 00:25:14;;;;;;;6.03;3.42;;;15.10;99.90;;;14.32;100.00;97451.75;5043770;28;20057;-71
2023/09/16 00:27:41;;;;;;;16.60;4.55;;;15.10;99.90;;;14.30;100.00;97449.25;5038289;28;20390;-73
2023/09/16 00:30:09;;;;;;;7.88;4.32;;;15.10;99.90;;;14.31;100.00;97448.31;5039878;28;20537;-73
2023/09/16 00:32:36;;;;;;;5.57;3.63;;;15.10;99.90;;;14.16;100.00;97454.41;5044031;28;20050;-73
2023/09/16 00:35:04;;;;;;;8.32;4.20;;;15.00;99.90;;;14.06;100.00;97448.91;5043066;28;20505;-72
2023/09/16 00:37:32;;;;;;;6.80;3.92;;;15.00;99.90;;;14.14;100.00;97456.28;5036696;28;20049;-72
2023/09/16 00:39:59;;;;;;;7.72;4.97;;;15.00;99.90;;;14.12;100.00;97450.34;5042786;28;20528;-72
2023/09/16 00:42:26;;;;;;;7.15;4.55;;;14.90;99.90;;;14.23;100.00;97448.78;5038715;28;20041;-72
2023/09/16 00:44:53;;;;;;;8.38;5.47;;;14.90;99.90;;;14.26;100.00;97449.53;5039068;28;20044;-73
2023/09/16 00:47:20;;;;;;;7.53;5.15;;;15.00;99.90;;;14.21;100.00;97442.78;5035056;28;20527;-73
2023/09/16 00:49:47;;;;;;;7.00;5.13;;;15.00;99.90;;;14.15;100.00;97440.53;5043949;28;20063;-72
2023/09/16 00:52:15;;;;;;;5.95;4.32;;;15.00;99.90;;;14.02;100.00;97436.97;5039625;28;20425;-73
2023/09/16 00:54:43;;;;;;;6.30;4.25;;;14.90;99.90;;;14.02;100.00;97436.97;5044683;28;20091;-73
2023/09/16 00:57:14;;;;;;;6.68;4.07;;;14.90;99.90;;;13.95;100.00;97439.09;5038000;28;20069;-73
2023/09/16 00:59:42;;;;;;;6.22;4.10;;;14.90;99.90;;;13.93;100.00;97445.34;5041002;28;20049;-73
2023/09/16 01:02:09;;;;;;;6.10;4.65;;;14.80;99.90;;;13.89;100.00;97434.25;5036895;28;20435;-73
2023/09/16 01:04:42;;;;;;;8.80;4.78;;;14.80;99.90;;;13.83;100.00;97432.00;5036222;28;20124;-73
2023/09/16 01:07:09;;;;;;;7.77;3.93;;;14.70;99.90;;;13.79;100.00;97433.94;5042549;28;20056;-73
2023/09/16 01:09:36;;;;;;;8.38;4.60;;;14.70;99.90;;;13.75;100.00;97439.41;5041965;28;20114;-73
2023/09/16 01:12:04;;;;;;;10.05;5.32;;;14.70;99.90;;;13.77;100.00;97438.38;5024608;28;20057;-71
2023/09/16 01:14:31;;;;;;;6.78;4.70;;;14.60;99.90;;;13.73;100.00;97439.53;5040111;28;20459;-73
2023/09/16 01:17:04;;;;;;;9.07;5.28;;;14.60;99.90;;;13.65;100.00;97439.09;5036986;28;20052;-73
2023/09/16 01:19:57;;;;;;;6.50;3.97;;;14.50;99.90;;;13.51;100.00;97439.91;5027807;28;20049;-73
2023/09/16 01:22:24;;;;;;;;;;;14.50;99.90;;;13.47;100.00;97440.16;5037914;28;20049;-73
2023/09/16 01:24:55;;;;;;;6.60;4.28;;;14.40;99.90;;;13.45;100.00;97437.63;5046233;28;19972;-73
2023/09/16 01:27:22;;;;;;;7.07;4.53;;;14.40;99.90;;;13.40;100.00;97439.66;5045519;28;20045;-72
2023/09/16 01:29:50;;;;;;;7.60;4.65;;;14.30;99.90;;;13.41;100.00;97445.69;5041497;28;20470;-73
2023/09/16 01:32:21;;;;;;;8.60;5.35;;;14.30;99.90;;;13.45;100.00;97447.22;5042068;28;20049;-73
2023/09/16 01:34:54;;;;;;;13.10;5.50;;;14.30;99.90;;;13.57;100.00;97441.28;5032654;28;20738;-73
2023/09/16 01:37:23;;;;;;;6.10;3.95;;;14.30;99.90;;;13.60;100.00;97441.16;5045205;28;20046;-73
2023/09/16 01:40:10;;;;;;;8.45;5.25;;;14.30;99.90;;;13.63;100.00;97433.13;5045894;28;20568;-73
2023/09/16 01:42:39;;;;;;;8.23;5.55;;;14.30;99.90;;;13.53;100.00;97435.44;5042653;28;20134;-73
2023/09/16 01:45:07;;;;;;;7.28;4.47;;;14.30;99.90;;;13.34;100.00;97433.03;5042974;28;20057;-73
2023/09/16 01:47:37;;;;;;;6.15;4.22;;;14.30;99.90;;;13.30;100.00;97434.13;5070770;28;20091;-73
2023/09/16 01:50:05;;;;;;;8.70;4.13;;;14.20;99.90;;;13.34;100.00;97432.16;5025193;28;20049;-73
2023/09/16 01:52:32;;;;;;;10.57;5.78;;;14.20;99.90;;;13.42;100.00;97432.59;5043673;28;20053;-72
2023/09/16 01:54:59;;;;;;;10.02;4.90;;;14.20;99.90;;;13.47;100.00;97446.19;5046158;28;20084;-73
2023/09/16 01:57:26;;;;;;;7.60;4.35;;;14.20;99.90;;;13.49;100.00;97444.34;5041573;28;20057;-73
2023/09/16 01:59:53;;;;;;;7.43;4.38;;;14.20;99.90;;;13.41;100.00;97445.69;5057338;28;20053;-73
2023/09/16 02:02:20;;;;;;;7.97;4.68;;;14.20;99.90;;;13.34;100.00;97443.47;5023357;28;20052;-73
2023/09/16 02:04:48;;;;;;;8.30;5.78;;;14.20;99.90;;;13.41;100.00;97441.34;5055412;28;20136;-73
2023/09/16 02:07:15;;;;;;;9.63;4.15;;;14.20;99.90;;;13.40;100.00;97450.09;5053955;28;20068;-73
2023/09/16 02:09:42;;;;;;;7.05;4.57;;;14.20;99.90;;;13.39;100.00;97440.59;5041359;28;20077;-73
2023/09/16 02:12:09;;;;;;;7.57;4.80;;;14.30;99.90;;;13.35;100.00;97441.69;5042039;28;20271;-74
2023/09/16 02:14:41;;;;;;;7.50;4.40;;;14.30;99.90;;;13.43;100.00;97439.47;5045499;28;20045;-73
2023/09/16 02:17:09;;;;;;;7.77;3.60;;;14.30;99.90;;;13.51;100.00;97452.09;5045514;28;20056;-73
2023/09/16 02:19:37;;;;;;;7.07;4.90;;;14.30;99.90;;;13.44;100.00;97446.38;5053243;28;20045;-73
2023/09/16 02:22:04;;;;;;;6.97;5.00;;;14.30;99.90;;;13.41;100.00;97440.50;5039388;28;20135;-73
2023/09/16 02:24:31;;;;;;;6.15;4.25;;;14.30;99.90;;;13.35;100.00;97447.72;5041282;28;20051;-72
2023/09/16 02:27:02;;;;;;;7.15;5.03;;;14.30;99.90;;;13.23;100.00;97452.75;5056446;28;20464;-73
2023/09/16 02:29:32;;;;;;;7.18;5.22;;;14.20;99.90;;;13.28;100.00;97456.00;5042658;28;20103;-73
2023/09/16 02:31:59;;;;;;;8.07;5.00;;;14.20;99.90;;;13.24;100.00;97454.44;5045415;28;20053;-73
2023/09/16 02:34:27;;;;;;;7.63;4.72;;;14.10;99.90;;;13.08;100.00;97460.50;5043186;28;20821;-73
2023/09/16 02:36:54;;;;;;;10.50;5.43;;;14.10;99.90;;;13.05;100.00;97463.28;5040982;28;20053;-73
2023/09/16 02:39:21;;;;;;;9.32;5.32;;;14.00;99.90;;;13.13;100.00;97463.69;5041612;28;20052;-72
2023/09/16 02:41:48;;;;;;;8.18;5.00;;;13.90;99.90;;;13.09;100.00;97454.38;5045706;28;20075;-73
2023/09/16 02:44:16;;;;;;;9.15;5.78;;;14.00;99.90;;;13.09;100.00;97463.94;5043128;28;20117;-74
2023/09/16 02:46:43;;;;;;;6.97;5.07;;;14.00;99.90;;;13.10;100.00;97452.59;5044918;28;20532;-73
2023/09/16 02:49:10;;;;;;;7.55;4.65;;;14.00;99.90;;;13.17;100.00;97451.34;5025155;28;20124;-73
2023/09/16 02:51:37;;;;;;;10.00;4.97;;;13.90;99.90;;;13.17;100.00;97453.94;5041201;28;20131;-73
2023/09/16 02:54:06;;;;;;;7.18;4.75;;;14.00;99.90;;;13.12;100.00;97451.59;5038225;28;20046;-73
2023/09/16 02:56:33;;;;;;;9.52;5.97;;;14.00;99.90;;;13.03;100.00;97457.31;5042583;28;20133;-73
2023/09/16 02:59:01;;;;;;;7.85;5.28;;;13.90;99.90;;;13.07;100.00;97456.22;5040276;28;20041;-73
2023/09/16 03:01:28;;;;;;;7.05;4.90;;;13.90;99.90;;;13.02;100.00;97457.38;5039175;28;20069;-73
2023/09/16 03:03:58;;;;;;;9.75;5.68;;;13.90;99.90;;;12.90;100.00;97461.50;5041846;28;20132;-73
2023/09/16 03:06:26;;;;;;;10.07;5.22;;;13.90;99.90;;;12.86;100.00;97454.75;5040867;28;20428;-73
2023/09/16 03:08:53;;;;;;;7.60;5.28;;;13.80;99.90;;;12.90;100.00;97454.50;5044421;28;20125;-73
2023/09/16 03:11:21;;;;;;;11.48;5.35;;;13.70;99.90;;;12.96;100.00;97456.78;5044174;28;20072;-73
2023/09/16 03:13:48;;;;;;;6.35;4.00;;;13.70;99.90;;;12.92;100.00;97450.06;5042345;28;20678;-73
2023/09/16 03:16:23;;;;;;;11.80;4.45;;;13.70;99.90;;;12.94;100.00;97453.41;5042346;28;20045;-73
2023/09/16 03:18:53;;;;;;;9.43;4.57;;;13.80;99.90;;;13.01;100.00;97443.50;5056975;28;20155;-73
2023/09/16 03:21:24;;;;;;;7.32;4.30;;;13.80;99.90;;;13.09;100.00;97443.94;5041517;28;20151;-73
2023/09/16 03:23:52;;;;;;;6.72;4.38;;;13.90;99.90;;;13.04;100.00;97445.09;5038441;28;20076;-72
2023/09/16 03:26:19;;;;;;;10.27;5.60;;;13.80;99.90;;;12.96;100.00;97438.56;5040272;28;20045;-73
2023/09/16 03:28:47;;;;;;;7.03;4.47;;;13.80;99.90;;;12.88;100.00;97440.72;5039086;28;20048;-74
2023/09/16 03:31:15;;;;;;;8.68;4.10;;;13.80;99.90;;;12.88;100.00;97443.31;5042430;28;20425;-73
2023/09/16 03:33:43;;;;;;;7.80;5.15;;;13.80;99.90;;;12.81;100.00;97436.78;5038107;28;20056;-73
2023/09/16 03:36:10;;;;;;;8.25;5.90;;;13.80;99.90;;;12.72;100.00;97435.50;5027887;28;20152;-73
2023/09/16 03:38:46;;;;;;;10.40;5.85;;;13.80;99.90;;;12.80;100.00;97427.28;5044911;28;20045;-71
2023/09/16 03:41:15;;;;;;;11.63;4.97;;;13.70;99.90;;;12.83;100.00;97428.88;5038287;28;20054;-73
2023/09/16 03:43:43;;;;;;;9.00;4.30;;;13.80;99.90;;;12.74;100.00;97431.03;5056343;28;20096;-73
2023/09/16 03:46:12;;;;;;;8.07;4.93;;;13.80;99.90;;;12.84;100.00;97427.94;5042284;28;20053;-74
2023/09/16 03:48:40;;;;;;;5.93;4.20;;;13.70;99.90;;;12.84;100.00;97423.59;5036694;28;20150;-73
2023/09/16 03:51:07;;;;;;;7.82;5.63;;;13.70;99.90;;;12.78;100.00;97421.31;5038398;28;20049;-71
2023/09/16 03:53:36;;;;;;;8.45;5.38;;;13.70;99.90;;;12.76;100.00;97426.59;5043419;28;20183;-72
2023/09/16 03:56:11;;;;;;;7.20;4.90;;;13.60;99.90;;;12.69;100.00;97416.59;5043068;28;20061;-73
2023/09/16 03:58:39;;;;;;;11.57;6.10;;;13.60;99.90;;;12.55;100.00;97415.56;5040893;28;20080;-73
2023/09/16 04:01:06;;;;;;;11.13;5.50;;;13.60;99.90;;;12.54;100.00;97415.66;5037344;28;20045;-73
2023/09/16 04:03:34;;;;;;;7.82;5.60;;;13.50;99.90;;;12.47;100.00;97419.50;5027596;28;20121;-73
2023/09/16 04:06:03;;;;;;;6.78;4.63;;;13.50;99.90;;;12.61;100.00;97413.56;5041062;28;20041;-73
2023/09/16 04:08:31;;;;;;;8.40;4.95;;;13.50;99.90;;;12.63;100.00;97414.31;5036848;28;20048;-73
2023/09/16 04:11:09;;;;;;;7.47;4.78;;;13.50;99.90;;;12.59;100.00;97408.44;5043514;28;20048;-73
2023/09/16 04:13:37;;;;;;;8.00;5.47;;;13.50;99.90;;;12.45;100.00;97411.78;5043989;28;20045;-73
2023/09/16 04:16:04;;;;;;;7.22;4.72;;;13.40;99.90;;;12.44;100.00;97406.66;5043685;28;20081;-73
2023/09/16 04:18:34;;;;;;;6.75;3.85;;;13.40;99.90;;;12.36;100.00;97401.84;5040529;28;20057;-73
2023/09/16 04:21:02;;;;;;;8.35;5.70;;;13.40;99.90;;;12.27;100.00;97403.19;5040080;28;20110;-72
2023/09/16 04:23:35;;;;;;;7.30;5.38;;;13.30;99.90;;;12.29;100.00;97403.94;5041293;28;20049;-73
2023/09/16 04:26:04;;;;;;;9.63;5.90;;;13.20;99.90;;;12.32;100.00;97408.97;5037850;28;20103;-73
2023/09/16 04:28:32;;;;;;;8.57;5.95;;;13.30;99.90;;;12.19;100.00;97414.91;5070398;28;20045;-73
2023/09/16 04:30:59;;;;;;;8.85;4.15;;;13.20;99.90;;;12.22;100.00;97404.31;5037488;28;20056;-73
2023/09/16 04:33:27;;;;;;;10.02;4.22;;;13.20;99.90;;;12.14;100.00;97405.56;5040748;28;20064;-73
2023/09/16 04:35:54;;;;;;;68.88;7.43;;;13.20;99.90;;;12.06;100.00;97407.72;5042346;28;20049;-72
2023/09/16 04:38:22;;;;;;;6.45;4.28;;;13.10;99.90;;;12.03;100.00;97404.44;5037633;28;20049;-72
2023/09/16 04:40:50;;;;;;;7.72;5.40;;;13.00;99.90;;;11.99;100.00;97398.53;5039806;28;20132;-73
2023/09/16 04:43:17;;;;;;;9.63;4.93;;;13.00;99.90;;;12.06;100.00;97397.31;5038085;28;20041;-73
2023/09/16 04:45:44;;;;;;;7.07;4.68;;;13.00;99.90;;;12.07;100.00;97399.00;5040608;28;20044;-73
2023/09/16 04:48:15;;;;;;;7.85;4.65;;;13.00;99.90;;;12.17;100.00;97399.34;5036299;28;20048;-73
2023/09/16 04:50:47;;;;;;;9.02;4.88;;;12.90;99.90;;;12.07;100.00;97392.97;5041901;28;20059;-73
2023/09/16 04:53:15;;;;;;;6.95;4.38;;;12.90;99.90;;;12.02;100.00;97392.34;5042509;28;20452;-73
2023/09/16 04:55:42;;;;;;;8.63;4.15;;;12.90;99.90;;;12.06;100.00;97388.66;5038092;28;20061;-72
2023/09/16 04:58:09;;;;;;;7.25;4.38;;;13.00;99.90;;;12.10;100.00;97385.81;5040641;28;20047;-73
2023/09/16 05:00:38;;;;;;;8.18;4.32;;;13.00;99.90;;;12.13;100.00;97393.50;5039853;28;20855;-73
2023/09/16 05:03:06;;;;;;;7.05;3.92;;;13.00;99.90;;;12.07;100.00;97392.97;5041604;28;20056;-73
2023/09/16 05:05:35;;;;;;;8.40;4.78;;;13.00;99.90;;;11.95;100.00;97391.84;5051433;28;20050;-73
2023/09/16 05:08:02;;;;;;;10.20;5.22;;;13.00;99.90;;;12.03;100.00;97384.47;5053905;28;20052;-73
2023/09/16 05:10:29;;;;;;;8.13;4.78;;;13.00;99.90;;;11.97;100.00;97389.97;5040017;28;20084;-74
2023/09/16 05:12:56;;;;;;;7.22;3.90;;;13.00;99.90;;;11.96;100.00;97385.69;5042903;28;20057;-73
2023/09/16 05:15:26;;;;;;;5.97;3.47;;;13.00;99.90;;;11.95;100.00;97386.63;5040933;28;20045;-73
2023/09/16 05:17:53;;;;;;;7.22;4.30;;;12.90;99.90;;;12.01;100.00;97391.50;5038887;28;20075;-73
2023/09/16 05:20:21;;;;;;;8.38;5.32;;;12.90;99.90;;;11.99;100.00;97388.13;5039052;28;20081;-73
2023/09/16 05:22:50;;;;;;;7.35;5.43;;;12.90;99.90;;;12.09;100.00;97385.94;5040032;28;20053;-74
2023/09/16 05:25:17;;;;;;;6.88;5.30;;;12.90;99.90;;;12.02;100.00;97385.41;5039689;28;20045;-73
2023/09/16 05:27:45;;;;;;;8.50;4.45;;;13.00;99.90;;;12.16;100.00;97389.88;5038307;28;20044;-73
2023/09/16 05:30:13;;;;;;;8.30;4.68;;;13.00;99.90;;;12.17;100.00;97396.75;5040686;28;20066;-73
2023/09/16 05:32:40;;;;;;;5.10;3.50;;;13.00;99.90;;;12.23;100.00;97388.66;5039434;28;20144;-73
2023/09/16 05:35:07;;;;;;;5.93;3.53;;;13.10;99.90;;;12.36;100.00;97383.63;5070395;28;20056;-73
2023/09/16 05:37:37;;;;;;;6.95;4.35;;;13.10;99.90;;;12.37;100.00;97392.28;5039373;28;20087;-73
2023/09/16 05:40:05;;;;;;;6.63;4.90;;;13.10;99.90;;;12.32;100.00;97389.94;5039947;28;20733;-73
2023/09/16 05:42:32;;;;;;;5.00;3.70;;;13.10;99.90;;;12.30;100.00;97395.19;5041438;28;20049;-72
2023/09/16 05:45:01;;;;;;;7.53;4.20;;;13.10;99.90;;;12.38;100.00;97396.56;5036263;28;20585;-72
2023/09/16 05:47:30;;;;;;;7.53;4.75;;;13.20;99.90;;;12.38;100.00;97401.75;5036305;28;20046;-73
2023/09/16 05:49:58;;;;;;;5.78;4.25;;;13.10;99.90;;;12.37;100.00;97397.50;5039116;28;20051;-72
2023/09/16 05:52:25;;;;;;;11.68;6.72;;;13.20;99.90;;;12.30;100.00;97397.81;5035639;28;20083;-73
2023/09/16 05:54:52;;;;;;;7.78;5.38;;;13.20;99.90;;;12.34;100.00;97416.72;5039709;28;20049;-73
2023/09/16 05:57:19;;;;;;;7.57;5.28;;;13.20;99.90;;;12.42;100.00;97404.13;5041810;28;20125;-73
2023/09/16 05:59:46;;;;;;;5.30;4.00;;;13.20;99.90;;;12.42;100.00;97414.53;5043935;28;20973;-73
2023/09/16 06:02:15;;;;;;;8.50;5.97;;;13.20;99.90;;;12.43;100.00;97412.75;5035767;28;20137;-72
2023/09/16 06:04:43;;;;;;;8.60;5.55;;;13.20;99.90;;;12.42;100.00;97417.13;5039953;28;20057;-73
2023/09/16 06:07:10;;;;;;;7.60;4.30;;;13.20;99.90;;;12.47;100.00;97416.91;5038148;28;20057;-73
2023/09/16 06:09:38;;;;;;;8.45;5.07;;;13.30;99.90;;;12.59;100.00;97415.41;5036294;28;20069;-73
2023/09/16 06:12:05;;;;;;;7.93;4.95;;;13.30;99.90;;;12.67;100.00;97423.66;5039917;28;20424;-72
2023/09/16 06:14:33;;;;;;;5.93;3.92;;;13.30;99.90;;;12.75;100.00;97417.13;5057097;28;20144;-73
2023/09/16 06:17:00;;;;;;;6.43;4.50;;;13.40;99.90;;;12.80;100.00;97419.47;5042119;28;20103;-74
2023/09/16 06:19:28;;;;;;;6.43;4.75;;;13.40;99.90;;;12.92;100.00;97417.97;5038511;28;20056;-73
2023/09/16 06:21:56;;;;;;;9.57;6.03;;;13.50;99.90;;;13.23;100.00;97426.69;5043329;28;20045;-74
2023/09/16 06:24:24;;;;;;;9.30;6.65;;;13.60;99.90;;;13.46;100.00;97422.84;5046054;28;20136;-73
2023/09/16 06:26:52;;;;;;;10.88;6.85;;;13.80;99.90;;;13.55;100.00;97419.72;5040829;28;20946;-72
2023/09/16 06:29:19;;;;;;;11.65;8.10;;;13.90;99.90;;;13.79;100.00;97420.06;5058710;28;20049;-71
2023/09/16 06:31:46;;;;;;;10.43;6.18;;;14.00;99.90;;;14.01;100.00;97417.03;5044606;28;20073;-73
2023/09/16 06:34:13;;;;;;;12.45;6.63;;;14.20;99.90;;;14.08;100.00;97418.34;5039281;28;20140;-72
2023/09/16 06:36:41;;;;;;;10.25;7.85;;;14.40;99.90;;;14.11;100.00;97412.09;5041718;28;20528;-73
2023/09/16 06:39:11;;;;;;;13.50;8.57;;;14.50;99.90;;;14.19;100.00;97418.56;5042608;28;20053;-71
2023/09/16 06:41:38;;;;;;;8.38;6.15;;;14.60;99.90;;;14.42;100.00;97416.34;5041237;28;20132;-73
2023/09/16 06:44:05;;;;;;;11.93;7.38;;;14.70;99.90;;;14.49;100.00;97409.78;5042254;28;20596;-73
2023/09/16 06:46:32;;;;;;;10.02;6.25;;;14.90;99.90;;;14.60;100.00;97411.78;5023239;28;20087;-72
2023/09/16 06:48:59;;;;;;;11.63;7.60;;;15.00;99.90;;;15.09;100.00;97411.31;5040980;28;20048;-72
2023/09/16 06:51:30;;;;;;;9.02;6.15;;;15.20;99.90;;;15.31;100.00;97407.34;5042152;28;20430;-72
2023/09/16 06:53:57;;;;;;;10.38;7.38;;;15.30;99.90;;;15.72;100.00;97406.47;5035357;28;20065;-73
2023/09/16 06:56:24;;;;;;;10.55;6.78;;;15.60;99.90;;;15.83;100.00;97414.44;5028578;28;20135;-73
2023/09/16 06:58:51;;;;;;;8.55;7.03;;;15.80;99.90;;;16.06;100.00;97408.50;5042971;28;20586;-73
2023/09/16 07:01:18;;;;;;;9.48;6.70;;;16.00;99.90;;;16.06;100.00;97408.50;5035248;28;20052;-73
2023/09/16 07:03:45;;;;;;;9.07;6.38;;;16.10;99.90;;;16.23;100.00;97417.81;5037495;28;20533;-72
2023/09/16 07:06:13;;;;;;;10.25;7.10;;;16.30;99.90;;;16.60;100.00;97417.06;5037692;28;20676;-73
2023/09/16 07:08:40;;;;;;;8.90;6.60;;;16.50;99.90;;;16.74;100.00;97419.59;5038914;28;20060;-73
2023/09/16 07:11:07;;;;;;;8.77;7.00;;;16.60;99.90;;;16.89;100.00;97413.28;5037566;28;20804;-73
2023/09/16 07:13:34;;;;;;;9.82;7.07;;;16.80;99.90;;;17.07;100.00;97411.13;5043029;28;20110;-72
2023/09/16 07:16:02;;;;;;;9.40;6.18;;;17.00;99.90;;;17.14;100.00;97409.72;5040724;28;20056;-73
2023/09/16 07:18:30;;;;;;;8.68;5.90;;;17.20;99.90;;;17.37;100.00;97411.66;5039647;28;20425;-72
2023/09/16 07:20:57;;;;;;;9.18;6.68;;;17.30;99.90;;;17.31;100.00;97413.78;5041213;28;20057;-72
2023/09/16 07:23:24;;;;;;;8.68;6.07;;;17.50;99.90;;;17.26;100.00;97415.88;5039477;28;20048;-74
2023/09/16 07:25:55;;;;;;;7.25;5.78;;;17.50;99.90;;;17.38;100.00;97421.19;5040869;28;20053;-74
2023/09/16 07:28:27;;;;;;;8.77;5.47;;;17.60;99.90;;;17.59;100.00;97424.88;5045819;28;20135;-73
2023/09/16 07:30:55;;;;;;;7.97;5.75;;;17.80;99.90;;;17.69;100.00;97425.03;5042454;28;20494;-72
2023/09/16 07:33:22;;;;;;;7.88;5.82;;;17.90;99.90;;;17.86;100.00;97427.28;5039189;28;20049;-73
2023/09/16 07:35:51;;;;;;;8.82;6.47;;;18.00;99.90;;;18.08;100.00;97423.03;5042232;28;20057;-73
2023/09/16 07:38:18;;;;;;;8.30;5.00;;;18.10;99.90;;;18.09;100.00;97422.94;5039063;28;20056;-73
2023/09/16 07:40:45;;;;;;;7.18;5.63;;;18.30;99.90;;;18.21;100.00;97421.16;5043454;28;20055;-73
2023/09/16 07:43:12;;;;;;;6.93;5.35;;;18.40;99.90;;;18.45;100.00;97414.97;5022794;28;20080;-73
2023/09/16 07:45:41;;;;;;;6.65;5.15;;;18.50;99.90;;;18.84;100.00;97420.72;5041276;28;20611;-72
2023/09/16 07:48:09;;;;;;;7.85;5.35;;;18.70;99.90;;;19.53;100.00;97421.31;5040664;28;20430;-72
2023/09/16 07:50:36;;;;;;;6.00;5.18;;;18.80;99.90;;;20.21;100.00;97416.59;5046427;28;20037;-72
2023/09/16 07:53:04;;;;;;;7.97;5.47;;;19.10;99.90;;;20.84;100.00;97402.47;5043562;28;20091;-71
2023/09/16 07:55:31;;;;;;;5.53;4.60;;;19.40;99.90;;;21.34;100.00;97406.91;5039650;28;20049;-73
2023/09/16 07:57:58;;;;;;;6.68;4.40;;;19.90;99.90;;;21.98;100.00;97411.66;5045352;28;20053;-73
2023/09/16 08:00:25;;;;;;;4.72;4.22;;;20.60;99.90;;;22.14;100.00;97416.38;5040855;28;20049;-73
2023/09/16 08:02:52;;;;;;;4.68;3.97;;;21.40;99.90;;;22.85;100.00;97420.34;5041117;28;20053;-73
2023/09/16 08:05:20;;;;;;;5.97;4.10;;;22.30;99.90;;;23.60;100.00;97421.06;5038376;28;20503;-74
2023/09/16 08:07:47;;;;;;;5.68;3.20;;;23.30;99.90;;;24.38;100.00;97430.97;5045636;28;20138;-73
2023/09/16 08:10:14;;;;;;;5.40;3.45;;;24.50;99.90;;;25.35;100.00;97443.13;5044486;28;20056;-74
2023/09/16 08:12:42;;;;;;;8.18;4.40;;;25.80;99.90;;;25.15;100.00;97453.16;5042425;28;20055;-74
2023/09/16 08:15:09;;;;;;;4.47;2.90;;;26.80;99.90;;;25.77;100.00;97449.34;5024646;28;20140;-73
2023/09/16 08:17:39;;;;;;;4.93;3.17;;;27.60;99.90;;;26.52;100.00;97457.19;5052909;28;20099;-74
2023/09/16 08:20:08;;;;;;;5.07;3.72;;;28.40;99.90;;;26.79;100.00;97463.16;5039344;28;20053;-74
2023/09/16 08:22:35;;;;;;;4.25;3.30;;;28.90;99.90;;;27.25;100.00;97461.50;5028992;28;20125;-74
2023/09/16 08:25:05;;;;;;;5.70;4.03;;;29.20;99.90;;;27.35;100.00;97465.81;5044018;28;20076;-74
2023/09/16 08:27:32;;;;;;;6.47;3.47;;;29.40;99.90;;;27.70;100.00;97467.13;5038581;28;20152;-73
2023/09/16 08:29:59;;;;;;;6.45;3.25;;;29.90;99.90;;;28.19;100.00;97461.47;5039568;28;20103;-74
2023/09/16 08:32:28;;;;;;;4.45;3.10;;;30.00;99.90;;;28.06;100.00;97463.91;5037906;28;20158;-74
2023/09/16 08:34:57;;;;;;;5.13;3.08;;;30.20;99.90;;;27.73;100.00;97469.41;5042466;28;20053;-74
2023/09/16 08:37:24;;;;;;;4.05;2.92;;;30.30;99.90;;;28.51;100.00;97468.38;5044125;28;20049;-73
2023/09/16 08:39:51;;;;;;;4.05;2.90;;;30.20;99.90;;;29.02;100.00;97477.53;5039459;28;20056;-74
2023/09/16 08:42:40;;;;;;;7.32;3.47;;;30.20;99.90;;;28.44;100.00;97482.59;5039237;28;20072;-75
2023/09/16 08:45:14;;;;;;;7.38;3.13;;;30.40;99.90;;;27.85;100.00;97485.88;5038739;28;20081;-74
2023/09/16 08:47:49;;;;;;;5.57;3.80;;;30.50;99.90;;;26.75;100.00;97491.13;5037982;28;20053;-72
2023/09/16 08:50:21;;;;;;;5.65;3.33;;;30.10;99.90;;;26.77;100.00;97495.28;5037747;28;20053;-74
2023/09/16 08:52:55;;;;;;;3.42;2.70;;;29.60;99.90;;;27.18;100.00;97505.00;5026892;28;20049;-74
2023/09/16 08:55:22;;;;;;;3.42;2.83;;;29.50;99.90;;;27.46;100.00;97508.06;5042720;28;20128;-74
2023/09/16 08:58:06;;;;;;;4.88;2.95;;;29.50;99.90;;;27.63;100.00;97504.31;5040448;28;20053;-75
2023/09/16 09:00:33;;;;;;;5.07;2.40;;;29.60;99.90;;;27.78;100.00;97500.91;5043420;28;20037;-74
2023/09/16 09:03:00;;;;;;;4.65;2.78;;;29.70;99.90;;;26.73;100.00;97515.28;5041493;28;20580;-73
2023/09/16 09:05:30;;;;;;;4.35;3.13;;;29.70;99.90;;;26.89;100.00;97514.38;5039762;28;20386;-72
2023/09/16 09:08:01;;;;;;;5.65;3.13;;;29.50;99.90;;;27.11;100.00;97516.31;5041864;28;20072;-74
2023/09/16 09:10:31;;;;;;;4.03;2.72;;;29.60;99.90;;;27.70;100.00;97510.59;5039689;28;20694;-75
2023/09/16 09:12:59;;;;;;;4.18;2.80;;;29.50;99.90;;;27.78;100.00;97504.41;5039426;28;20520;-73
2023/09/16 09:15:30;;;;;;;6.03;3.08;;;29.80;99.90;;;28.53;100.00;97505.56;5048483;28;20049;-75
2023/09/16 09:17:58;;;;;;;3.90;2.97;;;29.80;99.90;;;28.43;100.00;97505.78;5024179;28;20052;-73
2023/09/16 09:20:27;;;;;;;4.53;2.70;;;30.20;99.90;;;29.50;100.00;97496.69;5036478;28;20574;-74
2023/09/16 09:22:56;;;;;;;7.18;3.60;;;30.30;99.90;;;28.54;100.00;97494.72;5073305;28;20424;-74
2023/09/16 09:25:28;;;;;;;8.05;2.97;;;30.40;99.90;;;30.24;100.00;97485.75;5038906;28;20103;-73
2023/09/16 09:27:59;;;;;;;4.72;2.45;;;30.90;99.90;;;29.66;100.00;97491.09;5072623;28;20045;-75
2023/09/16 09:30:27;;;;;;;5.63;3.00;;;31.20;99.80;;;30.56;100.00;97483.56;5039136;28;20045;-75
2023/09/16 09:32:55;;;;;;;4.13;2.70;;;31.30;99.40;;;29.18;100.00;97482.72;5061898;28;20053;-74
2023/09/16 09:35:26;;;;;;;4.57;2.50;;;31.30;99.20;;;29.26;100.00;97493.28;5045204;28;20088;-75
2023/09/16 09:37:54;;;;;;;3.85;2.90;;;31.20;99.10;;;30.72;100.00;97482.44;5041947;28;20076;-71
2023/09/16 09:40:21;;;;;;;7.35;3.00;;;31.30;99.70;;;29.52;100.00;97479.44;5040424;28;20161;-73
2023/09/16 09:42:51;;;;;;;4.55;2.28;;;31.30;98.90;;;30.14;100.00;97482.56;5025291;28;20049;-75
2023/09/16 09:45:25;;;;;;;4.03;2.30;;;31.40;99.20;;;31.30;100.00;97483.00;5042752;28;20046;-72
2023/09/16 09:47:53;;;;;;;3.47;2.70;;;31.70;99.80;;;30.49;100.00;97462.06;5061634;28;20044;-75
2023/09/16 09:50:22;;;;;;;3.20;2.20;;;31.90;98.70;;;30.90;100.00;97458.66;5072178;28;20045;-72
2023/09/16 09:52:55;;;;;;;3.92;2.22;;;31.80;98.30;;;30.95;100.00;97458.06;5047734;28;20049;-73
2023/09/16 09:55:24;;;;;;;2.78;1.98;;;31.90;97.40;;;32.11;100.00;97454.59;5050143;28;20049;-73
2023/09/16 09:57:52;;;;;;;4.78;1.83;;;32.30;97.50;;;32.98;100.00;97450.81;5031512;28;20134;-73
2023/09/16 10:00:21;;;;;;;3.45;1.90;;;32.50;97.50;;;32.81;100.00;97447.75;5032373;28;20064;-74
2023/09/16 10:02:50;;;;;;;4.75;2.17;;;32.90;96.90;;;31.56;100.00;97458.16;5046646;28;20053;-75
2023/09/16 10:05:22;;;;;;;5.35;2.25;;;32.40;95.80;;;30.72;100.00;97458.31;5060169;28;20971;-76
2023/09/16 10:07:51;;;;;;;5.38;2.83;;;31.70;96.40;;;30.41;100.00;97471.09;5046553;28;20059;-74
2023/09/16 10:10:24;;;;;;;6.25;2.95;;;31.20;97.30;;;29.36;100.00;97474.31;5039219;28;20107;-75
2023/09/16 10:12:55;;;;;;;3.72;2.72;;;30.90;98.10;;;29.17;100.00;97473.88;5042959;28;20065;-76
2023/09/16 10:15:31;;;;;;;4.83;2.57;;;30.70;97.90;;;28.39;100.00;97474.28;5044581;28;20056;-73
2023/09/16 10:18:03;;;;;;;3.78;2.45;;;31.10;98.00;;;28.80;100.00;97480.09;5041490;28;20057;-75